sensor_id;sensor_type;location;lat;lon;timestamp;P1;durP1;ratioP1;P2;durP2;ratioP2
52708;SDS011;38606;52.986;6.980;2022-12-17T00:01:51;164.20;;;36.45;;
52708;SDS011;38606;52.986;6.980;2022-12-17T00:04:35;151.57;;;36.47;;
52708;SDS011;38606;52.986;6.980;2022-12-17T00:07:21;179.05;;;37.25;;
52708;SDS011;38606;52.986;6.980;2022-12-17T00:10:06;123.35;;;37.70;;
52708;SDS011;38606;52.986;6.980;2022-12-17T00:12:50;139.05;;;35.83;;
52708;SDS011;38606;52.986;6.980;2022-12-17T00:15:35;157.35;;;35.63;;
52708;SDS011;38606;52.986;6.980;2022-12-17T00:18:19;132.57;;;37.20;;
52708;SDS011;38606;52.986;6.980;2022-12-17T00:21:04;137.00;;;37.67;;
52708;SDS011;38606;52.986;6.980;2022-12-17T00:23:49;148.45;;;37.72;;
52708;SDS011;38606;52.986;6.980;2022-12-17T00:26:33;225.88;;;37.10;;
52708;SDS011;38606;52.986;6.980;2022-12-17T00:29:18;133.85;;;37.28;;
52708;SDS011;38606;52.986;6.980;2022-12-17T00:32:03;155.30;;;38.25;;
52708;SDS011;38606;52.986;6.980;2022-12-17T00:34:47;149.80;;;36.78;;
52708;SDS011;38606;52.986;6.980;2022-12-17T00:37:32;151.18;;;37.67;;
52708;SDS011;38606;52.986;6.980;2022-12-17T00:40:16;135.18;;;37.08;;
52708;SDS011;38606;52.986;6.980;2022-12-17T00:43:02;150.77;;;37.70;;
52708;SDS011;38606;52.986;6.980;2022-12-17T00:45:47;143.23;;;37.95;;
52708;SDS011;38606;52.986;6.980;2022-12-17T00:48:32;143.38;;;37.33;;
52708;SDS011;38606;52.986;6.980;2022-12-17T00:51:16;157.73;;;35.50;;
52708;SDS011;38606;52.986;6.980;2022-12-17T00:54:01;153.55;;;34.85;;
52708;SDS011;38606;52.986;6.980;2022-12-17T00:56:45;145.20;;;38.35;;
52708;SDS011;38606;52.986;6.980;2022-12-17T00:59:30;175.77;;;36.40;;
52708;SDS011;38606;52.986;6.980;2022-12-17T01:02:14;148.48;;;36.03;;
52708;SDS011;38606;52.986;6.980;2022-12-17T01:04:58;139.77;;;35.85;;
52708;SDS011;38606;52.986;6.980;2022-12-17T01:07:42;134.07;;;36.00;;
52708;SDS011;38606;52.986;6.980;2022-12-17T01:10:27;124.38;;;35.20;;
52708;SDS011;38606;52.986;6.980;2022-12-17T01:13:14;129.18;;;35.92;;
52708;SDS011;38606;52.986;6.980;2022-12-17T01:16:03;124.82;;;36.53;;
52708;SDS011;38606;52.986;6.980;2022-12-17T01:18:52;141.30;;;37.33;;
52708;SDS011;38606;52.986;6.980;2022-12-17T01:21:37;157.02;;;39.25;;
52708;SDS011;38606;52.986;6.980;2022-12-17T01:24:22;165.02;;;37.67;;
52708;SDS011;38606;52.986;6.980;2022-12-17T01:27:06;159.25;;;38.40;;
52708;SDS011;38606;52.986;6.980;2022-12-17T01:29:50;144.65;;;37.65;;
52708;SDS011;38606;52.986;6.980;2022-12-17T01:32:34;155.98;;;38.22;;
52708;SDS011;38606;52.986;6.980;2022-12-17T01:35:19;153.18;;;37.13;;
52708;SDS011;38606;52.986;6.980;2022-12-17T01:38:09;143.00;;;38.85;;
52708;SDS011;38606;52.986;6.980;2022-12-17T01:41:01;154.68;;;40.10;;
52708;SDS011;38606;52.986;6.980;2022-12-17T01:43:54;156.52;;;39.72;;
52708;SDS011;38606;52.986;6.980;2022-12-17T01:46:40;153.38;;;41.83;;
52708;SDS011;38606;52.986;6.980;2022-12-17T01:49:32;147.00;;;41.13;;
52708;SDS011;38606;52.986;6.980;2022-12-17T01:52:17;155.93;;;41.08;;
52708;SDS011;38606;52.986;6.980;2022-12-17T01:55:01;152.65;;;43.35;;
52708;SDS011;38606;52.986;6.980;2022-12-17T01:57:47;157.32;;;44.75;;
52708;SDS011;38606;52.986;6.980;2022-12-17T02:00:32;154.65;;;45.05;;
52708;SDS011;38606;52.986;6.980;2022-12-17T02:03:16;155.07;;;45.50;;
52708;SDS011;38606;52.986;6.980;2022-12-17T02:06:11;179.55;;;46.05;;
52708;SDS011;38606;52.986;6.980;2022-12-17T02:09:11;169.18;;;48.83;;
52708;SDS011;38606;52.986;6.980;2022-12-17T02:15:09;167.10;;;48.00;;
52708;SDS011;38606;52.986;6.980;2022-12-17T02:18:03;183.43;;;47.53;;
52708;SDS011;38606;52.986;6.980;2022-12-17T02:20:52;182.27;;;50.20;;
52708;SDS011;38606;52.986;6.980;2022-12-17T02:26:43;182.75;;;47.60;;
52708;SDS011;38606;52.986;6.980;2022-12-17T02:29:36;200.90;;;54.38;;
52708;SDS011;38606;52.986;6.980;2022-12-17T02:32:26;195.15;;;54.08;;
52708;SDS011;38606;52.986;6.980;2022-12-17T02:35:14;195.77;;;51.80;;
52708;SDS011;38606;52.986;6.980;2022-12-17T02:38:19;212.13;;;52.60;;
52708;SDS011;38606;52.986;6.980;2022-12-17T02:41:06;205.68;;;52.08;;
52708;SDS011;38606;52.986;6.980;2022-12-17T02:46:42;194.85;;;49.47;;
52708;SDS011;38606;52.986;6.980;2022-12-17T02:49:28;199.13;;;50.63;;
52708;SDS011;38606;52.986;6.980;2022-12-17T02:52:13;207.25;;;49.85;;
52708;SDS011;38606;52.986;6.980;2022-12-17T02:55:01;204.75;;;51.92;;
52708;SDS011;38606;52.986;6.980;2022-12-17T02:57:45;192.75;;;49.60;;
52708;SDS011;38606;52.986;6.980;2022-12-17T03:00:30;207.32;;;52.05;;
52708;SDS011;38606;52.986;6.980;2022-12-17T03:03:14;217.50;;;51.47;;
52708;SDS011;38606;52.986;6.980;2022-12-17T03:05:58;230.80;;;53.05;;
52708;SDS011;38606;52.986;6.980;2022-12-17T03:08:42;213.35;;;53.45;;
52708;SDS011;38606;52.986;6.980;2022-12-17T03:11:27;226.88;;;52.67;;
52708;SDS011;38606;52.986;6.980;2022-12-17T03:14:12;223.32;;;51.75;;
52708;SDS011;38606;52.986;6.980;2022-12-17T03:16:57;210.30;;;50.25;;
52708;SDS011;38606;52.986;6.980;2022-12-17T03:19:41;200.88;;;47.22;;
52708;SDS011;38606;52.986;6.980;2022-12-17T03:22:26;213.80;;;46.67;;
52708;SDS011;38606;52.986;6.980;2022-12-17T03:25:11;211.07;;;47.85;;
52708;SDS011;38606;52.986;6.980;2022-12-17T03:28:01;215.05;;;47.13;;
52708;SDS011;38606;52.986;6.980;2022-12-17T03:30:50;235.38;;;48.10;;
52708;SDS011;38606;52.986;6.980;2022-12-17T03:33:35;245.75;;;49.15;;
52708;SDS011;38606;52.986;6.980;2022-12-17T03:36:19;244.35;;;46.97;;
52708;SDS011;38606;52.986;6.980;2022-12-17T03:39:04;240.32;;;46.10;;
52708;SDS011;38606;52.986;6.980;2022-12-17T03:41:48;235.52;;;45.38;;
52708;SDS011;38606;52.986;6.980;2022-12-17T03:44:33;227.98;;;46.83;;
52708;SDS011;38606;52.986;6.980;2022-12-17T03:47:17;246.77;;;45.78;;
52708;SDS011;38606;52.986;6.980;2022-12-17T03:50:03;256.50;;;46.85;;
52708;SDS011;38606;52.986;6.980;2022-12-17T03:52:48;257.02;;;48.15;;
52708;SDS011;38606;52.986;6.980;2022-12-17T03:55:32;233.95;;;49.17;;
52708;SDS011;38606;52.986;6.980;2022-12-17T03:58:16;252.88;;;50.30;;
52708;SDS011;38606;52.986;6.980;2022-12-17T04:01:01;235.55;;;48.20;;
52708;SDS011;38606;52.986;6.980;2022-12-17T04:03:45;223.60;;;45.72;;
52708;SDS011;38606;52.986;6.980;2022-12-17T04:06:30;225.27;;;46.75;;
52708;SDS011;38606;52.986;6.980;2022-12-17T04:09:14;235.13;;;48.00;;
52708;SDS011;38606;52.986;6.980;2022-12-17T04:11:58;211.73;;;46.22;;
52708;SDS011;38606;52.986;6.980;2022-12-17T04:14:43;217.38;;;46.10;;
52708;SDS011;38606;52.986;6.980;2022-12-17T04:17:27;202.68;;;46.28;;
52708;SDS011;38606;52.986;6.980;2022-12-17T04:20:12;202.18;;;45.97;;
52708;SDS011;38606;52.986;6.980;2022-12-17T04:22:57;188.50;;;43.40;;
52708;SDS011;38606;52.986;6.980;2022-12-17T04:25:41;167.98;;;42.65;;
52708;SDS011;38606;52.986;6.980;2022-12-17T04:28:25;171.27;;;43.17;;
52708;SDS011;38606;52.986;6.980;2022-12-17T04:31:10;187.00;;;42.00;;
52708;SDS011;38606;52.986;6.980;2022-12-17T04:33:54;189.18;;;42.58;;
52708;SDS011;38606;52.986;6.980;2022-12-17T04:36:39;169.68;;;40.85;;
52708;SDS011;38606;52.986;6.980;2022-12-17T04:39:23;177.32;;;40.38;;
52708;SDS011;38606;52.986;6.980;2022-12-17T04:42:08;151.68;;;40.85;;
52708;SDS011;38606;52.986;6.980;2022-12-17T04:44:52;157.25;;;39.15;;
52708;SDS011;38606;52.986;6.980;2022-12-17T04:47:36;168.32;;;38.25;;
52708;SDS011;38606;52.986;6.980;2022-12-17T04:50:21;173.15;;;39.85;;
52708;SDS011;38606;52.986;6.980;2022-12-17T04:53:06;159.70;;;40.25;;
52708;SDS011;38606;52.986;6.980;2022-12-17T04:55:52;161.38;;;39.45;;
52708;SDS011;38606;52.986;6.980;2022-12-17T04:58:37;167.73;;;40.42;;
52708;SDS011;38606;52.986;6.980;2022-12-17T05:01:22;139.95;;;35.58;;
52708;SDS011;38606;52.986;6.980;2022-12-17T05:04:06;160.52;;;37.55;;
52708;SDS011;38606;52.986;6.980;2022-12-17T05:06:51;143.65;;;36.13;;
52708;SDS011;38606;52.986;6.980;2022-12-17T05:09:35;151.07;;;34.65;;
52708;SDS011;38606;52.986;6.980;2022-12-17T05:12:19;134.38;;;35.92;;
52708;SDS011;38606;52.986;6.980;2022-12-17T05:15:04;129.20;;;34.38;;
52708;SDS011;38606;52.986;6.980;2022-12-17T05:17:52;143.60;;;37.20;;
52708;SDS011;38606;52.986;6.980;2022-12-17T05:20:36;127.43;;;34.15;;
52708;SDS011;38606;52.986;6.980;2022-12-17T05:23:20;130.10;;;33.58;;
52708;SDS011;38606;52.986;6.980;2022-12-17T05:26:18;142.73;;;33.92;;
52708;SDS011;38606;52.986;6.980;2022-12-17T05:29:07;104.68;;;32.30;;
52708;SDS011;38606;52.986;6.980;2022-12-17T05:31:52;102.57;;;31.85;;
52708;SDS011;38606;52.986;6.980;2022-12-17T05:34:36;106.22;;;32.80;;
52708;SDS011;38606;52.986;6.980;2022-12-17T05:37:21;113.00;;;32.70;;
52708;SDS011;38606;52.986;6.980;2022-12-17T05:40:07;104.78;;;32.55;;
52708;SDS011;38606;52.986;6.980;2022-12-17T05:42:59;99.53;;;32.58;;
52708;SDS011;38606;52.986;6.980;2022-12-17T05:45:45;102.00;;;32.23;;
52708;SDS011;38606;52.986;6.980;2022-12-17T05:48:30;105.22;;;32.83;;
52708;SDS011;38606;52.986;6.980;2022-12-17T05:51:15;106.50;;;34.92;;
52708;SDS011;38606;52.986;6.980;2022-12-17T05:53:59;112.78;;;33.30;;
52708;SDS011;38606;52.986;6.980;2022-12-17T05:56:43;101.13;;;34.35;;
52708;SDS011;38606;52.986;6.980;2022-12-17T05:59:28;102.32;;;35.80;;
52708;SDS011;38606;52.986;6.980;2022-12-17T06:02:12;98.38;;;33.83;;
52708;SDS011;38606;52.986;6.980;2022-12-17T06:04:56;104.13;;;35.13;;
52708;SDS011;38606;52.986;6.980;2022-12-17T06:07:40;108.50;;;35.75;;
52708;SDS011;38606;52.986;6.980;2022-12-17T06:10:25;99.47;;;34.60;;
52708;SDS011;38606;52.986;6.980;2022-12-17T06:13:09;105.60;;;35.00;;
52708;SDS011;38606;52.986;6.980;2022-12-17T06:15:53;104.80;;;35.67;;
52708;SDS011;38606;52.986;6.980;2022-12-17T06:18:38;92.82;;;35.13;;
52708;SDS011;38606;52.986;6.980;2022-12-17T06:21:22;95.97;;;34.92;;
52708;SDS011;38606;52.986;6.980;2022-12-17T06:24:06;103.90;;;34.95;;
52708;SDS011;38606;52.986;6.980;2022-12-17T06:26:51;99.65;;;34.97;;
52708;SDS011;38606;52.986;6.980;2022-12-17T06:29:35;100.88;;;35.78;;
52708;SDS011;38606;52.986;6.980;2022-12-17T06:32:20;97.68;;;33.97;;
52708;SDS011;38606;52.986;6.980;2022-12-17T06:35:04;101.43;;;36.13;;
52708;SDS011;38606;52.986;6.980;2022-12-17T06:38:07;102.28;;;34.92;;
52708;SDS011;38606;52.986;6.980;2022-12-17T06:40:52;100.80;;;34.30;;
52708;SDS011;38606;52.986;6.980;2022-12-17T06:43:36;94.15;;;34.38;;
52708;SDS011;38606;52.986;6.980;2022-12-17T06:46:21;96.50;;;32.10;;
52708;SDS011;38606;52.986;6.980;2022-12-17T06:49:05;107.22;;;35.67;;
52708;SDS011;38606;52.986;6.980;2022-12-17T06:51:50;111.75;;;35.55;;
52708;SDS011;38606;52.986;6.980;2022-12-17T06:54:35;116.15;;;35.97;;
52708;SDS011;38606;52.986;6.980;2022-12-17T06:57:19;113.63;;;35.85;;
52708;SDS011;38606;52.986;6.980;2022-12-17T07:00:04;110.75;;;36.47;;
52708;SDS011;38606;52.986;6.980;2022-12-17T07:02:48;120.00;;;36.80;;
52708;SDS011;38606;52.986;6.980;2022-12-17T07:05:33;118.65;;;37.90;;
52708;SDS011;38606;52.986;6.980;2022-12-17T07:08:17;121.32;;;37.60;;
52708;SDS011;38606;52.986;6.980;2022-12-17T07:11:02;120.20;;;38.88;;
52708;SDS011;38606;52.986;6.980;2022-12-17T07:13:46;122.80;;;38.28;;
52708;SDS011;38606;52.986;6.980;2022-12-17T07:16:30;130.57;;;39.35;;
52708;SDS011;38606;52.986;6.980;2022-12-17T07:19:15;128.70;;;39.38;;
52708;SDS011;38606;52.986;6.980;2022-12-17T07:21:59;128.32;;;36.42;;
52708;SDS011;38606;52.986;6.980;2022-12-17T07:24:43;117.20;;;35.90;;
52708;SDS011;38606;52.986;6.980;2022-12-17T07:27:28;118.65;;;36.15;;
52708;SDS011;38606;52.986;6.980;2022-12-17T07:30:12;133.75;;;35.03;;
52708;SDS011;38606;52.986;6.980;2022-12-17T07:32:57;106.38;;;32.42;;
52708;SDS011;38606;52.986;6.980;2022-12-17T07:35:46;117.50;;;31.65;;
52708;SDS011;38606;52.986;6.980;2022-12-17T07:38:30;98.72;;;31.45;;
52708;SDS011;38606;52.986;6.980;2022-12-17T07:41:15;102.20;;;30.30;;
52708;SDS011;38606;52.986;6.980;2022-12-17T07:44:00;107.53;;;31.27;;
52708;SDS011;38606;52.986;6.980;2022-12-17T07:46:45;106.00;;;30.55;;
52708;SDS011;38606;52.986;6.980;2022-12-17T07:49:30;107.30;;;31.20;;
52708;SDS011;38606;52.986;6.980;2022-12-17T07:52:14;95.30;;;30.27;;
52708;SDS011;38606;52.986;6.980;2022-12-17T07:54:58;109.72;;;32.15;;
52708;SDS011;38606;52.986;6.980;2022-12-17T07:57:42;103.65;;;29.90;;
52708;SDS011;38606;52.986;6.980;2022-12-17T08:00:26;110.63;;;31.60;;
52708;SDS011;38606;52.986;6.980;2022-12-17T08:03:11;107.72;;;31.05;;
52708;SDS011;38606;52.986;6.980;2022-12-17T08:05:58;114.22;;;32.65;;
52708;SDS011;38606;52.986;6.980;2022-12-17T08:08:42;112.07;;;31.08;;
52708;SDS011;38606;52.986;6.980;2022-12-17T08:11:27;126.07;;;33.90;;
52708;SDS011;38606;52.986;6.980;2022-12-17T08:14:12;116.22;;;33.28;;
52708;SDS011;38606;52.986;6.980;2022-12-17T08:16:56;128.20;;;37.25;;
52708;SDS011;38606;52.986;6.980;2022-12-17T08:19:40;120.63;;;33.17;;
52708;SDS011;38606;52.986;6.980;2022-12-17T08:22:25;117.65;;;32.42;;
52708;SDS011;38606;52.986;6.980;2022-12-17T08:25:09;118.40;;;32.83;;
52708;SDS011;38606;52.986;6.980;2022-12-17T08:27:57;109.05;;;31.13;;
52708;SDS011;38606;52.986;6.980;2022-12-17T08:30:46;109.03;;;30.92;;
52708;SDS011;38606;52.986;6.980;2022-12-17T08:33:30;134.70;;;32.47;;
52708;SDS011;38606;52.986;6.980;2022-12-17T08:36:15;104.22;;;31.40;;
52708;SDS011;38606;52.986;6.980;2022-12-17T08:38:59;98.60;;;28.15;;
52708;SDS011;38606;52.986;6.980;2022-12-17T08:41:46;89.63;;;28.50;;
52708;SDS011;38606;52.986;6.980;2022-12-17T08:44:31;87.38;;;28.52;;
52708;SDS011;38606;52.986;6.980;2022-12-17T08:47:16;97.43;;;30.65;;
52708;SDS011;38606;52.986;6.980;2022-12-17T08:50:00;105.05;;;30.33;;
52708;SDS011;38606;52.986;6.980;2022-12-17T08:52:45;106.82;;;32.13;;
52708;SDS011;38606;52.986;6.980;2022-12-17T08:55:29;102.07;;;31.60;;
52708;SDS011;38606;52.986;6.980;2022-12-17T08:58:14;99.03;;;30.63;;
52708;SDS011;38606;52.986;6.980;2022-12-17T09:00:59;101.97;;;30.60;;
52708;SDS011;38606;52.986;6.980;2022-12-17T09:03:46;82.00;;;27.40;;
52708;SDS011;38606;52.986;6.980;2022-12-17T09:06:41;88.90;;;29.38;;
52708;SDS011;38606;52.986;6.980;2022-12-17T09:09:26;87.45;;;30.52;;
52708;SDS011;38606;52.986;6.980;2022-12-17T09:12:10;96.95;;;29.38;;
52708;SDS011;38606;52.986;6.980;2022-12-17T09:14:55;96.40;;;30.98;;
52708;SDS011;38606;52.986;6.980;2022-12-17T09:17:39;91.38;;;29.85;;
52708;SDS011;38606;52.986;6.980;2022-12-17T09:20:24;90.88;;;30.50;;
52708;SDS011;38606;52.986;6.980;2022-12-17T09:23:08;99.22;;;30.70;;
52708;SDS011;38606;52.986;6.980;2022-12-17T09:25:53;101.20;;;32.78;;
52708;SDS011;38606;52.986;6.980;2022-12-17T09:28:38;99.28;;;31.58;;
52708;SDS011;38606;52.986;6.980;2022-12-17T09:31:24;101.00;;;30.17;;
52708;SDS011;38606;52.986;6.980;2022-12-17T09:34:08;98.90;;;31.23;;
52708;SDS011;38606;52.986;6.980;2022-12-17T09:36:52;103.32;;;34.25;;
52708;SDS011;38606;52.986;6.980;2022-12-17T09:39:37;93.15;;;32.13;;
52708;SDS011;38606;52.986;6.980;2022-12-17T09:42:23;106.32;;;33.80;;
52708;SDS011;38606;52.986;6.980;2022-12-17T09:45:52;101.10;;;33.15;;
52708;SDS011;38606;52.986;6.980;2022-12-17T09:49:00;119.68;;;32.80;;
52708;SDS011;38606;52.986;6.980;2022-12-17T09:51:47;105.28;;;33.42;;
52708;SDS011;38606;52.986;6.980;2022-12-17T09:54:35;111.18;;;33.60;;
52708;SDS011;38606;52.986;6.980;2022-12-17T09:57:28;113.10;;;33.13;;
52708;SDS011;38606;52.986;6.980;2022-12-17T10:00:17;102.13;;;33.00;;
52708;SDS011;38606;52.986;6.980;2022-12-17T10:03:07;108.53;;;34.00;;
52708;SDS011;38606;52.986;6.980;2022-12-17T10:05:54;112.57;;;34.55;;
52708;SDS011;38606;52.986;6.980;2022-12-17T10:08:41;113.93;;;34.78;;
52708;SDS011;38606;52.986;6.980;2022-12-17T10:11:43;102.20;;;34.38;;
52708;SDS011;38606;52.986;6.980;2022-12-17T10:14:28;106.57;;;35.08;;
52708;SDS011;38606;52.986;6.980;2022-12-17T10:17:21;111.40;;;37.17;;
52708;SDS011;38606;52.986;6.980;2022-12-17T10:23:26;114.28;;;36.13;;
52708;SDS011;38606;52.986;6.980;2022-12-17T10:26:26;108.47;;;35.13;;
52708;SDS011;38606;52.986;6.980;2022-12-17T10:29:14;110.95;;;35.05;;
52708;SDS011;38606;52.986;6.980;2022-12-17T10:34:58;107.20;;;37.63;;
52708;SDS011;38606;52.986;6.980;2022-12-17T10:37:59;104.07;;;35.92;;
52708;SDS011;38606;52.986;6.980;2022-12-17T10:40:44;107.38;;;36.92;;
52708;SDS011;38606;52.986;6.980;2022-12-17T10:43:38;107.28;;;36.80;;
52708;SDS011;38606;52.986;6.980;2022-12-17T10:46:24;111.03;;;36.85;;
52708;SDS011;38606;52.986;6.980;2022-12-17T10:52:13;106.03;;;38.22;;
52708;SDS011;38606;52.986;6.980;2022-12-17T10:55:22;102.22;;;36.53;;
52708;SDS011;38606;52.986;6.980;2022-12-17T10:58:13;92.70;;;34.35;;
52708;SDS011;38606;52.986;6.980;2022-12-17T11:01:16;95.18;;;34.50;;
52708;SDS011;38606;52.986;6.980;2022-12-17T11:04:17;99.93;;;37.00;;
52708;SDS011;38606;52.986;6.980;2022-12-17T11:07:04;96.88;;;35.05;;
52708;SDS011;38606;52.986;6.980;2022-12-17T11:09:50;100.00;;;36.17;;
52708;SDS011;38606;52.986;6.980;2022-12-17T11:15:50;96.93;;;36.13;;
52708;SDS011;38606;52.986;6.980;2022-12-17T11:21:55;94.28;;;36.40;;
52708;SDS011;38606;52.986;6.980;2022-12-17T11:24:43;100.60;;;36.42;;
52708;SDS011;38606;52.986;6.980;2022-12-17T11:27:36;100.13;;;36.63;;
52708;SDS011;38606;52.986;6.980;2022-12-17T11:30:26;94.65;;;38.15;;
52708;SDS011;38606;52.986;6.980;2022-12-17T11:36:21;97.50;;;36.05;;
52708;SDS011;38606;52.986;6.980;2022-12-17T11:39:21;92.82;;;35.42;;
52708;SDS011;38606;52.986;6.980;2022-12-17T11:42:23;89.55;;;35.85;;
52708;SDS011;38606;52.986;6.980;2022-12-17T11:48:27;100.80;;;38.03;;
52708;SDS011;38606;52.986;6.980;2022-12-17T11:51:24;96.32;;;38.10;;
52708;SDS011;38606;52.986;6.980;2022-12-17T12:00:17;89.03;;;35.53;;
52708;SDS011;38606;52.986;6.980;2022-12-17T12:03:15;94.93;;;37.42;;
52708;SDS011;38606;52.986;6.980;2022-12-17T12:10:02;93.20;;;38.83;;
52708;SDS011;38606;52.986;6.980;2022-12-17T12:15:47;88.88;;;35.13;;
52708;SDS011;38606;52.986;6.980;2022-12-17T12:25:18;84.88;;;35.55;;
52708;SDS011;38606;52.986;6.980;2022-12-17T12:31:26;90.63;;;34.85;;
52708;SDS011;38606;52.986;6.980;2022-12-17T12:34:23;93.28;;;36.15;;
52708;SDS011;38606;52.986;6.980;2022-12-17T12:37:13;89.60;;;36.65;;
52708;SDS011;38606;52.986;6.980;2022-12-17T12:43:10;86.63;;;34.03;;
52708;SDS011;38606;52.986;6.980;2022-12-17T12:49:28;84.33;;;34.17;;
52708;SDS011;38606;52.986;6.980;2022-12-17T12:52:36;85.38;;;34.78;;
52708;SDS011;38606;52.986;6.980;2022-12-17T12:55:21;80.35;;;33.20;;
52708;SDS011;38606;52.986;6.980;2022-12-17T12:58:23;89.43;;;36.85;;
52708;SDS011;38606;52.986;6.980;2022-12-17T13:01:13;85.22;;;35.03;;
52708;SDS011;38606;52.986;6.980;2022-12-17T13:03:57;87.15;;;33.25;;
52708;SDS011;38606;52.986;6.980;2022-12-17T13:06:51;89.82;;;35.25;;
52708;SDS011;38606;52.986;6.980;2022-12-17T13:09:19;83.65;;;35.92;;
52708;SDS011;38606;52.986;6.980;2022-12-17T13:12:08;83.85;;;35.53;;
52708;SDS011;38606;52.986;6.980;2022-12-17T13:17:38;93.73;;;37.10;;
52708;SDS011;38606;52.986;6.980;2022-12-17T13:20:22;80.88;;;34.72;;
52708;SDS011;38606;52.986;6.980;2022-12-17T13:25:37;92.45;;;35.88;;
52708;SDS011;38606;52.986;6.980;2022-12-17T13:28:03;83.65;;;33.42;;
52708;SDS011;38606;52.986;6.980;2022-12-17T13:30:31;83.45;;;34.20;;
52708;SDS011;38606;52.986;6.980;2022-12-17T13:41:25;80.22;;;33.67;;
52708;SDS011;38606;52.986;6.980;2022-12-17T13:44:01;74.85;;;30.77;;
52708;SDS011;38606;52.986;6.980;2022-12-17T13:46:41;86.25;;;33.05;;
52708;SDS011;38606;52.986;6.980;2022-12-17T13:49:27;81.18;;;32.72;;
52708;SDS011;38606;52.986;6.980;2022-12-17T13:52:01;81.82;;;34.63;;
52708;SDS011;38606;52.986;6.980;2022-12-17T13:54:43;76.95;;;31.92;;
52708;SDS011;38606;52.986;6.980;2022-12-17T13:57:13;75.93;;;32.13;;
52708;SDS011;38606;52.986;6.980;2022-12-17T13:59:48;83.50;;;33.85;;
52708;SDS011;38606;52.986;6.980;2022-12-17T14:02:22;83.00;;;32.97;;
52708;SDS011;38606;52.986;6.980;2022-12-17T14:04:57;83.45;;;32.92;;
52708;SDS011;38606;52.986;6.980;2022-12-17T14:07:25;78.47;;;31.90;;
52708;SDS011;38606;52.986;6.980;2022-12-17T14:09:52;74.70;;;29.08;;
52708;SDS011;38606;52.986;6.980;2022-12-17T14:12:19;82.93;;;32.40;;
52708;SDS011;38606;52.986;6.980;2022-12-17T14:14:52;89.63;;;34.17;;
52708;SDS011;38606;52.986;6.980;2022-12-17T14:17:28;85.45;;;34.13;;
52708;SDS011;38606;52.986;6.980;2022-12-17T14:20:17;85.30;;;33.95;;
52708;SDS011;38606;52.986;6.980;2022-12-17T14:22:48;82.07;;;32.58;;
52708;SDS011;38606;52.986;6.980;2022-12-17T14:25:21;81.95;;;30.95;;
52708;SDS011;38606;52.986;6.980;2022-12-17T14:27:58;86.38;;;33.38;;
52708;SDS011;38606;52.986;6.980;2022-12-17T14:30:36;85.78;;;32.80;;
52708;SDS011;38606;52.986;6.980;2022-12-17T14:35:55;86.95;;;33.22;;
52708;SDS011;38606;52.986;6.980;2022-12-17T14:38:22;87.53;;;33.92;;
52708;SDS011;38606;52.986;6.980;2022-12-17T14:40:48;94.53;;;33.95;;
52708;SDS011;38606;52.986;6.980;2022-12-17T14:43:14;94.43;;;34.40;;
52708;SDS011;38606;52.986;6.980;2022-12-17T14:45:54;96.53;;;35.20;;
52708;SDS011;38606;52.986;6.980;2022-12-17T14:48:41;89.10;;;33.13;;
52708;SDS011;38606;52.986;6.980;2022-12-17T14:51:40;88.78;;;32.65;;
52708;SDS011;38606;52.986;6.980;2022-12-17T14:54:17;84.97;;;31.25;;
52708;SDS011;38606;52.986;6.980;2022-12-17T14:56:47;90.63;;;32.90;;
52708;SDS011;38606;52.986;6.980;2022-12-17T15:02:41;86.68;;;31.63;;
52708;SDS011;38606;52.986;6.980;2022-12-17T15:04:52;92.47;;;30.05;;
52708;SDS011;38606;52.986;6.980;2022-12-17T15:07:22;97.05;;;32.08;;
52708;SDS011;38606;52.986;6.980;2022-12-17T15:09:50;93.18;;;30.42;;
52708;SDS011;38606;52.986;6.980;2022-12-17T15:12:18;93.85;;;29.65;;
52708;SDS011;38606;52.986;6.980;2022-12-17T15:14:45;92.28;;;31.73;;
52708;SDS011;38606;52.986;6.980;2022-12-17T15:17:11;99.68;;;32.97;;
52708;SDS011;38606;52.986;6.980;2022-12-17T15:19:37;89.97;;;32.28;;
52708;SDS011;38606;52.986;6.980;2022-12-17T15:22:03;102.03;;;33.28;;
52708;SDS011;38606;52.986;6.980;2022-12-17T15:24:29;101.65;;;31.17;;
52708;SDS011;38606;52.986;6.980;2022-12-17T15:26:54;96.07;;;30.80;;
52708;SDS011;38606;52.986;6.980;2022-12-17T15:29:21;101.03;;;31.38;;
52708;SDS011;38606;52.986;6.980;2022-12-17T15:31:48;94.88;;;30.63;;
52708;SDS011;38606;52.986;6.980;2022-12-17T15:34:14;103.47;;;30.40;;
52708;SDS011;38606;52.986;6.980;2022-12-17T15:36:40;91.75;;;28.80;;
52708;SDS011;38606;52.986;6.980;2022-12-17T15:39:05;89.20;;;28.23;;
52708;SDS011;38606;52.986;6.980;2022-12-17T15:41:32;83.43;;;26.52;;
52708;SDS011;38606;52.986;6.980;2022-12-17T15:44:16;90.45;;;26.90;;
52708;SDS011;38606;52.986;6.980;2022-12-17T15:46:42;96.57;;;29.02;;
52708;SDS011;38606;52.986;6.980;2022-12-17T15:49:08;93.05;;;27.48;;
52708;SDS011;38606;52.986;6.980;2022-12-17T15:51:33;91.70;;;28.00;;
52708;SDS011;38606;52.986;6.980;2022-12-17T15:53:59;100.85;;;29.38;;
52708;SDS011;38606;52.986;6.980;2022-12-17T15:56:26;96.55;;;26.80;;
52708;SDS011;38606;52.986;6.980;2022-12-17T15:58:52;106.15;;;30.17;;
52708;SDS011;38606;52.986;6.980;2022-12-17T16:01:21;111.75;;;30.63;;
52708;SDS011;38606;52.986;6.980;2022-12-17T16:03:46;100.30;;;27.08;;
52708;SDS011;38606;52.986;6.980;2022-12-17T16:06:12;91.28;;;27.17;;
52708;SDS011;38606;52.986;6.980;2022-12-17T16:08:38;86.43;;;25.27;;
52708;SDS011;38606;52.986;6.980;2022-12-17T16:11:05;95.00;;;28.27;;
52708;SDS011;38606;52.986;6.980;2022-12-17T16:13:35;94.10;;;26.83;;
52708;SDS011;38606;52.986;6.980;2022-12-17T16:16:01;101.85;;;27.98;;
52708;SDS011;38606;52.986;6.980;2022-12-17T16:18:27;101.85;;;28.65;;
52708;SDS011;38606;52.986;6.980;2022-12-17T16:20:53;98.72;;;27.13;;
52708;SDS011;38606;52.986;6.980;2022-12-17T16:23:19;97.43;;;28.58;;
52708;SDS011;38606;52.986;6.980;2022-12-17T16:25:54;103.20;;;30.08;;
52708;SDS011;38606;52.986;6.980;2022-12-17T16:28:21;97.07;;;28.58;;
52708;SDS011;38606;52.986;6.980;2022-12-17T16:30:56;110.20;;;29.45;;
52708;SDS011;38606;52.986;6.980;2022-12-17T16:33:26;96.57;;;28.92;;
52708;SDS011;38606;52.986;6.980;2022-12-17T16:35:55;98.80;;;30.27;;
52708;SDS011;38606;52.986;6.980;2022-12-17T16:38:21;96.38;;;28.30;;
52708;SDS011;38606;52.986;6.980;2022-12-17T16:40:47;102.22;;;30.15;;
52708;SDS011;38606;52.986;6.980;2022-12-17T16:43:12;108.30;;;28.90;;
52708;SDS011;38606;52.986;6.980;2022-12-17T16:45:45;112.90;;;31.80;;
52708;SDS011;38606;52.986;6.980;2022-12-17T16:48:13;107.53;;;31.98;;
52708;SDS011;38606;52.986;6.980;2022-12-17T16:50:39;109.93;;;34.97;;
52708;SDS011;38606;52.986;6.980;2022-12-17T16:53:05;103.25;;;31.80;;
52708;SDS011;38606;52.986;6.980;2022-12-17T16:55:32;105.90;;;31.83;;
52708;SDS011;38606;52.986;6.980;2022-12-17T16:57:57;112.32;;;32.67;;
52708;SDS011;38606;52.986;6.980;2022-12-17T17:00:23;117.97;;;33.30;;
52708;SDS011;38606;52.986;6.980;2022-12-17T17:02:49;120.13;;;33.22;;
52708;SDS011;38606;52.986;6.980;2022-12-17T17:05:15;110.57;;;32.78;;